sensor_id;sensor_type;location;lat;lon;timestamp;P1;durP1;ratioP1;P2;durP2;ratioP2
23608;SDS011;11982;50.810;4.442;2022-07-29T00:00:03;8.55;;;2.15;;
23608;SDS011;11982;50.810;4.442;2022-07-29T00:02:31;10.15;;;2.33;;
23608;SDS011;11982;50.810;4.442;2022-07-29T00:04:57;4.97;;;2.05;;
23608;SDS011;11982;50.810;4.442;2022-07-29T00:07:22;8.88;;;2.28;;
23608;SDS011;11982;50.810;4.442;2022-07-29T00:09:48;11.07;;;1.90;;
23608;SDS011;11982;50.810;4.442;2022-07-29T00:12:14;6.80;;;2.30;;
23608;SDS011;11982;50.810;4.442;2022-07-29T00:14:39;6.85;;;2.40;;
23608;SDS011;11982;50.810;4.442;2022-07-29T00:17:05;4.07;;;2.50;;
23608;SDS011;11982;50.810;4.442;2022-07-29T00:19:30;6.55;;;2.40;;
23608;SDS011;11982;50.810;4.442;2022-07-29T00:21:56;7.90;;;2.30;;
23608;SDS011;11982;50.810;4.442;2022-07-29T00:24:22;5.85;;;2.42;;
23608;SDS011;11982;50.810;4.442;2022-07-29T00:26:47;12.07;;;2.45;;
23608;SDS011;11982;50.810;4.442;2022-07-29T00:29:13;4.70;;;2.20;;
23608;SDS011;11982;50.810;4.442;2022-07-29T00:31:38;4.95;;;2.17;;
23608;SDS011;11982;50.810;4.442;2022-07-29T00:34:04;6.45;;;2.58;;
23608;SDS011;11982;50.810;4.442;2022-07-29T00:36:31;8.52;;;2.85;;
23608;SDS011;11982;50.810;4.442;2022-07-29T00:38:56;9.10;;;2.30;;
23608;SDS011;11982;50.810;4.442;2022-07-29T00:41:22;7.32;;;2.45;;
23608;SDS011;11982;50.810;4.442;2022-07-29T00:43:48;5.47;;;2.42;;
23608;SDS011;11982;50.810;4.442;2022-07-29T00:46:14;10.77;;;2.90;;
23608;SDS011;11982;50.810;4.442;2022-07-29T00:48:39;7.22;;;2.75;;
23608;SDS011;11982;50.810;4.442;2022-07-29T00:51:05;11.15;;;3.13;;
23608;SDS011;11982;50.810;4.442;2022-07-29T00:53:32;4.93;;;2.00;;
23608;SDS011;11982;50.810;4.442;2022-07-29T00:55:58;7.53;;;2.30;;
23608;SDS011;11982;50.810;4.442;2022-07-29T00:58:24;6.78;;;2.55;;
23608;SDS011;11982;50.810;4.442;2022-07-29T01:00:51;6.53;;;2.25;;
23608;SDS011;11982;50.810;4.442;2022-07-29T01:03:17;7.15;;;2.25;;
23608;SDS011;11982;50.810;4.442;2022-07-29T01:05:43;7.25;;;2.65;;
23608;SDS011;11982;50.810;4.442;2022-07-29T01:08:11;4.53;;;1.98;;
23608;SDS011;11982;50.810;4.442;2022-07-29T01:10:39;8.82;;;2.88;;
23608;SDS011;11982;50.810;4.442;2022-07-29T01:13:06;8.18;;;2.40;;
23608;SDS011;11982;50.810;4.442;2022-07-29T01:15:32;4.75;;;2.30;;
23608;SDS011;11982;50.810;4.442;2022-07-29T01:29:06;7.13;;;2.35;;
23608;SDS011;11982;50.810;4.442;2022-07-29T01:31:57;9.10;;;2.55;;
23608;SDS011;11982;50.810;4.442;2022-07-29T01:39:44;4.38;;;2.50;;
23608;SDS011;11982;50.810;4.442;2022-07-29T01:42:59;7.85;;;2.28;;
23608;SDS011;11982;50.810;4.442;2022-07-29T01:48:09;6.10;;;2.25;;
23608;SDS011;11982;50.810;4.442;2022-07-29T01:50:44;7.95;;;2.20;;
23608;SDS011;11982;50.810;4.442;2022-07-29T01:53:15;5.28;;;2.88;;
23608;SDS011;11982;50.810;4.442;2022-07-29T01:55:50;5.15;;;2.03;;
23608;SDS011;11982;50.810;4.442;2022-07-29T01:58:17;6.75;;;2.55;;
23608;SDS011;11982;50.810;4.442;2022-07-29T02:00:45;6.72;;;2.78;;
23608;SDS011;11982;50.810;4.442;2022-07-29T02:03:13;6.45;;;2.40;;
23608;SDS011;11982;50.810;4.442;2022-07-29T02:05:42;7.72;;;2.55;;
23608;SDS011;11982;50.810;4.442;2022-07-29T02:08:10;7.38;;;2.20;;
23608;SDS011;11982;50.810;4.442;2022-07-29T02:10:38;5.22;;;2.45;;
23608;SDS011;11982;50.810;4.442;2022-07-29T02:13:06;6.88;;;2.83;;
23608;SDS011;11982;50.810;4.442;2022-07-29T02:15:34;8.90;;;2.90;;
23608;SDS011;11982;50.810;4.442;2022-07-29T02:18:02;9.23;;;3.17;;
23608;SDS011;11982;50.810;4.442;2022-07-29T02:20:32;4.63;;;2.47;;
23608;SDS011;11982;50.810;4.442;2022-07-29T02:22:59;8.80;;;2.63;;
23608;SDS011;11982;50.810;4.442;2022-07-29T02:25:27;4.25;;;3.05;;
23608;SDS011;11982;50.810;4.442;2022-07-29T02:27:54;7.75;;;2.75;;
23608;SDS011;11982;50.810;4.442;2022-07-29T02:30:22;7.20;;;3.20;;
23608;SDS011;11982;50.810;4.442;2022-07-29T02:32:49;4.93;;;2.85;;
23608;SDS011;11982;50.810;4.442;2022-07-29T02:35:16;9.20;;;3.05;;
23608;SDS011;11982;50.810;4.442;2022-07-29T02:37:43;7.13;;;3.10;;
23608;SDS011;11982;50.810;4.442;2022-07-29T02:40:30;5.60;;;3.08;;
23608;SDS011;11982;50.810;4.442;2022-07-29T02:42:57;7.05;;;3.15;;
23608;SDS011;11982;50.810;4.442;2022-07-29T02:45:23;10.07;;;2.88;;
23608;SDS011;11982;50.810;4.442;2022-07-29T02:47:49;7.88;;;2.90;;
23608;SDS011;11982;50.810;4.442;2022-07-29T02:50:29;5.25;;;2.45;;
23608;SDS011;11982;50.810;4.442;2022-07-29T02:53:02;6.57;;;2.80;;
23608;SDS011;11982;50.810;4.442;2022-07-29T02:56:06;9.07;;;3.00;;
23608;SDS011;11982;50.810;4.442;2022-07-29T03:00:55;8.65;;;2.97;;
23608;SDS011;11982;50.810;4.442;2022-07-29T03:03:23;7.28;;;3.10;;
23608;SDS011;11982;50.810;4.442;2022-07-29T03:05:56;6.70;;;2.50;;
23608;SDS011;11982;50.810;4.442;2022-07-29T03:08:22;5.88;;;2.80;;
23608;SDS011;11982;50.810;4.442;2022-07-29T03:10:49;6.78;;;3.20;;
23608;SDS011;11982;50.810;4.442;2022-07-29T03:13:16;5.05;;;2.95;;
23608;SDS011;11982;50.810;4.442;2022-07-29T03:15:43;7.63;;;3.03;;
23608;SDS011;11982;50.810;4.442;2022-07-29T03:18:10;5.30;;;3.08;;
23608;SDS011;11982;50.810;4.442;2022-07-29T03:20:37;8.52;;;2.83;;
23608;SDS011;11982;50.810;4.442;2022-07-29T03:23:03;6.65;;;3.70;;
23608;SDS011;11982;50.810;4.442;2022-07-29T03:25:29;4.45;;;2.75;;
23608;SDS011;11982;50.810;4.442;2022-07-29T03:27:55;9.57;;;2.53;;
23608;SDS011;11982;50.810;4.442;2022-07-29T03:30:21;7.97;;;3.28;;
23608;SDS011;11982;50.810;4.442;2022-07-29T03:32:47;8.77;;;2.70;;
23608;SDS011;11982;50.810;4.442;2022-07-29T03:35:14;7.32;;;2.97;;
23608;SDS011;11982;50.810;4.442;2022-07-29T03:37:41;5.80;;;2.80;;
23608;SDS011;11982;50.810;4.442;2022-07-29T03:40:07;9.18;;;2.97;;
23608;SDS011;11982;50.810;4.442;2022-07-29T03:42:35;5.63;;;2.95;;
23608;SDS011;11982;50.810;4.442;2022-07-29T03:45:09;7.13;;;2.70;;
23608;SDS011;11982;50.810;4.442;2022-07-29T03:47:38;4.93;;;2.92;;
23608;SDS011;11982;50.810;4.442;2022-07-29T03:50:07;5.93;;;2.80;;
23608;SDS011;11982;50.810;4.442;2022-07-29T03:52:35;7.57;;;3.28;;
23608;SDS011;11982;50.810;4.442;2022-07-29T03:55:02;4.65;;;3.28;;
23608;SDS011;11982;50.810;4.442;2022-07-29T03:57:28;8.65;;;3.30;;
23608;SDS011;11982;50.810;4.442;2022-07-29T03:59:56;8.77;;;3.55;;
23608;SDS011;11982;50.810;4.442;2022-07-29T04:02:22;6.60;;;3.50;;
23608;SDS011;11982;50.810;4.442;2022-07-29T04:04:49;4.97;;;3.03;;
23608;SDS011;11982;50.810;4.442;2022-07-29T04:07:15;5.43;;;3.15;;
23608;SDS011;11982;50.810;4.442;2022-07-29T04:09:41;7.85;;;3.25;;
23608;SDS011;11982;50.810;4.442;2022-07-29T04:12:07;4.05;;;2.92;;
23608;SDS011;11982;50.810;4.442;2022-07-29T04:14:33;14.73;;;3.50;;
23608;SDS011;11982;50.810;4.442;2022-07-29T04:16:59;4.40;;;2.95;;
23608;SDS011;11982;50.810;4.442;2022-07-29T04:19:26;5.22;;;2.97;;
23608;SDS011;11982;50.810;4.442;2022-07-29T04:21:51;7.78;;;3.50;;
23608;SDS011;11982;50.810;4.442;2022-07-29T04:24:17;5.93;;;3.25;;
23608;SDS011;11982;50.810;4.442;2022-07-29T04:26:43;6.38;;;3.33;;
23608;SDS011;11982;50.810;4.442;2022-07-29T04:29:10;6.50;;;3.22;;
23608;SDS011;11982;50.810;4.442;2022-07-29T04:31:36;5.97;;;3.03;;
23608;SDS011;11982;50.810;4.442;2022-07-29T04:34:03;3.45;;;3.13;;
23608;SDS011;11982;50.810;4.442;2022-07-29T04:36:28;10.75;;;3.40;;
23608;SDS011;11982;50.810;4.442;2022-07-29T04:38:54;6.40;;;3.28;;
23608;SDS011;11982;50.810;4.442;2022-07-29T04:41:19;14.23;;;3.13;;
23608;SDS011;11982;50.810;4.442;2022-07-29T04:43:45;7.32;;;3.30;;
23608;SDS011;11982;50.810;4.442;2022-07-29T04:46:11;5.35;;;3.30;;
23608;SDS011;11982;50.810;4.442;2022-07-29T04:48:36;5.78;;;2.90;;
23608;SDS011;11982;50.810;4.442;2022-07-29T04:51:02;6.65;;;3.50;;
23608;SDS011;11982;50.810;4.442;2022-07-29T04:53:28;5.07;;;2.75;;
23608;SDS011;11982;50.810;4.442;2022-07-29T04:55:54;6.15;;;2.92;;
23608;SDS011;11982;50.810;4.442;2022-07-29T04:58:19;6.25;;;2.80;;
23608;SDS011;11982;50.810;4.442;2022-07-29T05:00:45;6.50;;;3.17;;
23608;SDS011;11982;50.810;4.442;2022-07-29T05:03:11;4.47;;;3.03;;
23608;SDS011;11982;50.810;4.442;2022-07-29T05:05:36;7.30;;;3.10;;
23608;SDS011;11982;50.810;4.442;2022-07-29T05:08:02;4.78;;;2.55;;
23608;SDS011;11982;50.810;4.442;2022-07-29T05:10:28;6.05;;;2.65;;
23608;SDS011;11982;50.810;4.442;2022-07-29T05:12:54;5.35;;;2.78;;
23608;SDS011;11982;50.810;4.442;2022-07-29T05:15:19;4.47;;;2.90;;
23608;SDS011;11982;50.810;4.442;2022-07-29T05:17:45;5.93;;;2.97;;
23608;SDS011;11982;50.810;4.442;2022-07-29T05:20:10;8.05;;;3.03;;
23608;SDS011;11982;50.810;4.442;2022-07-29T05:22:36;5.07;;;3.17;;
23608;SDS011;11982;50.810;4.442;2022-07-29T05:25:02;4.25;;;2.80;;
23608;SDS011;11982;50.810;4.442;2022-07-29T05:27:28;5.05;;;2.60;;
23608;SDS011;11982;50.810;4.442;2022-07-29T05:29:54;4.47;;;2.65;;
23608;SDS011;11982;50.810;4.442;2022-07-29T05:32:19;4.40;;;2.83;;
23608;SDS011;11982;50.810;4.442;2022-07-29T05:34:45;4.50;;;3.40;;
23608;SDS011;11982;50.810;4.442;2022-07-29T05:37:10;4.90;;;2.60;;
23608;SDS011;11982;50.810;4.442;2022-07-29T05:39:38;6.70;;;2.72;;
23608;SDS011;11982;50.810;4.442;2022-07-29T05:42:07;6.72;;;3.20;;
23608;SDS011;11982;50.810;4.442;2022-07-29T05:44:39;7.68;;;3.10;;
23608;SDS011;11982;50.810;4.442;2022-07-29T05:47:05;8.80;;;3.83;;
23608;SDS011;11982;50.810;4.442;2022-07-29T05:49:31;7.05;;;3.65;;
23608;SDS011;11982;50.810;4.442;2022-07-29T05:51:57;7.82;;;4.32;;
23608;SDS011;11982;50.810;4.442;2022-07-29T05:54:23;16.33;;;4.38;;
23608;SDS011;11982;50.810;4.442;2022-07-29T05:56:48;10.43;;;4.10;;
23608;SDS011;11982;50.810;4.442;2022-07-29T05:59:14;9.00;;;4.50;;
23608;SDS011;11982;50.810;4.442;2022-07-29T06:01:40;11.13;;;4.30;;
23608;SDS011;11982;50.810;4.442;2022-07-29T06:04:06;15.00;;;4.25;;
23608;SDS011;11982;50.810;4.442;2022-07-29T06:06:33;12.80;;;4.60;;
23608;SDS011;11982;50.810;4.442;2022-07-29T06:08:59;7.55;;;4.43;;
23608;SDS011;11982;50.810;4.442;2022-07-29T06:11:25;8.52;;;4.60;;
23608;SDS011;11982;50.810;4.442;2022-07-29T06:13:51;7.90;;;4.47;;
23608;SDS011;11982;50.810;4.442;2022-07-29T06:16:18;10.00;;;4.55;;
23608;SDS011;11982;50.810;4.442;2022-07-29T06:18:43;8.20;;;4.13;;
23608;SDS011;11982;50.810;4.442;2022-07-29T06:21:09;7.07;;;4.32;;
23608;SDS011;11982;50.810;4.442;2022-07-29T06:23:35;6.72;;;4.07;;
23608;SDS011;11982;50.810;4.442;2022-07-29T06:26:02;11.25;;;4.70;;
23608;SDS011;11982;50.810;4.442;2022-07-29T06:28:27;5.97;;;4.40;;
23608;SDS011;11982;50.810;4.442;2022-07-29T06:30:53;10.88;;;4.13;;
23608;SDS011;11982;50.810;4.442;2022-07-29T06:33:19;9.90;;;4.75;;
23608;SDS011;11982;50.810;4.442;2022-07-29T06:35:44;10.23;;;4.60;;
23608;SDS011;11982;50.810;4.442;2022-07-29T06:38:12;11.43;;;4.75;;
23608;SDS011;11982;50.810;4.442;2022-07-29T06:40:45;9.77;;;4.65;;
23608;SDS011;11982;50.810;4.442;2022-07-29T06:43:26;7.65;;;4.60;;
23608;SDS011;11982;50.810;4.442;2022-07-29T06:46:02;8.05;;;4.55;;
23608;SDS011;11982;50.810;4.442;2022-07-29T06:48:30;7.50;;;4.93;;
23608;SDS011;11982;50.810;4.442;2022-07-29T06:50:56;7.75;;;5.55;;
23608;SDS011;11982;50.810;4.442;2022-07-29T06:53:21;9.25;;;5.00;;
23608;SDS011;11982;50.810;4.442;2022-07-29T06:55:47;9.32;;;4.68;;
23608;SDS011;11982;50.810;4.442;2022-07-29T06:58:13;8.40;;;4.85;;
23608;SDS011;11982;50.810;4.442;2022-07-29T07:00:40;9.27;;;5.10;;
23608;SDS011;11982;50.810;4.442;2022-07-29T07:03:07;9.02;;;5.30;;
23608;SDS011;11982;50.810;4.442;2022-07-29T07:05:32;10.10;;;5.00;;
23608;SDS011;11982;50.810;4.442;2022-07-29T07:07:58;8.85;;;5.40;;
23608;SDS011;11982;50.810;4.442;2022-07-29T07:10:24;9.88;;;4.70;;
23608;SDS011;11982;50.810;4.442;2022-07-29T07:12:49;9.13;;;4.60;;
23608;SDS011;11982;50.810;4.442;2022-07-29T07:15:15;6.88;;;4.40;;
23608;SDS011;11982;50.810;4.442;2022-07-29T07:17:41;9.30;;;4.85;;
23608;SDS011;11982;50.810;4.442;2022-07-29T07:20:07;7.07;;;4.55;;
23608;SDS011;11982;50.810;4.442;2022-07-29T07:22:33;7.78;;;4.57;;
23608;SDS011;11982;50.810;4.442;2022-07-29T07:24:58;8.02;;;4.63;;
23608;SDS011;11982;50.810;4.442;2022-07-29T07:27:24;8.55;;;4.38;;
23608;SDS011;11982;50.810;4.442;2022-07-29T07:29:49;10.30;;;4.70;;
23608;SDS011;11982;50.810;4.442;2022-07-29T07:32:15;10.82;;;4.65;;
23608;SDS011;11982;50.810;4.442;2022-07-29T07:34:44;9.63;;;4.40;;
23608;SDS011;11982;50.810;4.442;2022-07-29T07:37:10;9.85;;;4.57;;
23608;SDS011;11982;50.810;4.442;2022-07-29T07:39:35;7.72;;;4.78;;
23608;SDS011;11982;50.810;4.442;2022-07-29T07:42:01;7.28;;;4.97;;
23608;SDS011;11982;50.810;4.442;2022-07-29T07:44:26;6.80;;;4.72;;
23608;SDS011;11982;50.810;4.442;2022-07-29T07:46:52;10.18;;;4.43;;
23608;SDS011;11982;50.810;4.442;2022-07-29T07:49:18;17.48;;;5.50;;
23608;SDS011;11982;50.810;4.442;2022-07-29T07:51:43;6.97;;;4.97;;
23608;SDS011;11982;50.810;4.442;2022-07-29T07:54:09;8.77;;;5.10;;
23608;SDS011;11982;50.810;4.442;2022-07-29T07:56:35;6.78;;;4.70;;
23608;SDS011;11982;50.810;4.442;2022-07-29T07:59:00;8.52;;;5.03;;
23608;SDS011;11982;50.810;4.442;2022-07-29T08:01:26;11.90;;;4.90;;
23608;SDS011;11982;50.810;4.442;2022-07-29T08:03:51;7.22;;;5.22;;
23608;SDS011;11982;50.810;4.442;2022-07-29T08:06:17;9.32;;;4.72;;
23608;SDS011;11982;50.810;4.442;2022-07-29T08:08:43;11.63;;;5.50;;
23608;SDS011;11982;50.810;4.442;2022-07-29T08:11:08;8.13;;;5.05;;
23608;SDS011;11982;50.810;4.442;2022-07-29T08:13:34;10.95;;;5.55;;
23608;SDS011;11982;50.810;4.442;2022-07-29T08:16:01;9.50;;;4.97;;
23608;SDS011;11982;50.810;4.442;2022-07-29T08:18:27;8.10;;;4.85;;
23608;SDS011;11982;50.810;4.442;2022-07-29T08:20:54;15.90;;;5.38;;
23608;SDS011;11982;50.810;4.442;2022-07-29T08:23:20;8.10;;;5.43;;
23608;SDS011;11982;50.810;4.442;2022-07-29T08:25:46;12.82;;;5.25;;
23608;SDS011;11982;50.810;4.442;2022-07-29T08:28:12;7.25;;;4.50;;
23608;SDS011;11982;50.810;4.442;2022-07-29T08:30:37;6.90;;;4.93;;
23608;SDS011;11982;50.810;4.442;2022-07-29T08:33:03;12.80;;;5.25;;
23608;SDS011;11982;50.810;4.442;2022-07-29T08:35:29;8.43;;;4.97;;
23608;SDS011;11982;50.810;4.442;2022-07-29T08:37:54;9.10;;;4.78;;
23608;SDS011;11982;50.810;4.442;2022-07-29T08:40:21;10.30;;;4.57;;
23608;SDS011;11982;50.810;4.442;2022-07-29T08:42:48;9.05;;;4.57;;
23608;SDS011;11982;50.810;4.442;2022-07-29T08:45:15;10.95;;;4.70;;
23608;SDS011;11982;50.810;4.442;2022-07-29T08:47:41;8.45;;;3.85;;
23608;SDS011;11982;50.810;4.442;2022-07-29T08:50:09;9.30;;;3.63;;
23608;SDS011;11982;50.810;4.442;2022-07-29T08:52:38;6.43;;;4.38;;
23608;SDS011;11982;50.810;4.442;2022-07-29T08:55:05;10.75;;;4.20;;
23608;SDS011;11982;50.810;4.442;2022-07-29T08:57:32;8.15;;;4.15;;
23608;SDS011;11982;50.810;4.442;2022-07-29T09:00:01;7.43;;;3.50;;
23608;SDS011;11982;50.810;4.442;2022-07-29T09:02:29;8.63;;;3.90;;
23608;SDS011;11982;50.810;4.442;2022-07-29T09:05:00;5.82;;;3.38;;
23608;SDS011;11982;50.810;4.442;2022-07-29T09:07:27;6.32;;;3.35;;
23608;SDS011;11982;50.810;4.442;2022-07-29T09:09:53;5.55;;;3.42;;
23608;SDS011;11982;50.810;4.442;2022-07-29T09:12:19;6.57;;;2.92;;
23608;SDS011;11982;50.810;4.442;2022-07-29T09:14:47;4.05;;;2.78;;
23608;SDS011;11982;50.810;4.442;2022-07-29T09:17:13;5.65;;;2.40;;
23608;SDS011;11982;50.810;4.442;2022-07-29T09:19:41;8.98;;;3.13;;
23608;SDS011;11982;50.810;4.442;2022-07-29T09:22:07;9.00;;;2.58;;
23608;SDS011;11982;50.810;4.442;2022-07-29T09:27:07;3.80;;;2.38;;
23608;SDS011;11982;50.810;4.442;2022-07-29T09:29:44;8.10;;;2.30;;
23608;SDS011;11982;50.810;4.442;2022-07-29T09:32:09;10.30;;;2.88;;
23608;SDS011;11982;50.810;4.442;2022-07-29T09:34:35;5.32;;;2.20;;
23608;SDS011;11982;50.810;4.442;2022-07-29T09:37:02;4.90;;;2.25;;
23608;SDS011;11982;50.810;4.442;2022-07-29T09:39:32;4.65;;;2.70;;
23608;SDS011;11982;50.810;4.442;2022-07-29T09:42:00;3.28;;;2.28;;
23608;SDS011;11982;50.810;4.442;2022-07-29T09:44:41;9.25;;;2.42;;
23608;SDS011;11982;50.810;4.442;2022-07-29T09:47:07;8.48;;;2.60;;
23608;SDS011;11982;50.810;4.442;2022-07-29T09:49:33;9.38;;;2.60;;
23608;SDS011;11982;50.810;4.442;2022-07-29T09:52:02;4.72;;;2.33;;
23608;SDS011;11982;50.810;4.442;2022-07-29T09:54:30;11.10;;;2.20;;
23608;SDS011;11982;50.810;4.442;2022-07-29T09:57:03;11.32;;;2.42;;
23608;SDS011;11982;50.810;4.442;2022-07-29T09:59:30;7.13;;;2.45;;
23608;SDS011;11982;50.810;4.442;2022-07-29T10:01:56;5.10;;;2.30;;
23608;SDS011;11982;50.810;4.442;2022-07-29T10:04:22;5.95;;;2.55;;
23608;SDS011;11982;50.810;4.442;2022-07-29T10:06:57;4.45;;;2.28;;
23608;SDS011;11982;50.810;4.442;2022-07-29T10:09:24;4.75;;;2.05;;
23608;SDS011;11982;50.810;4.442;2022-07-29T10:14:32;4.15;;;2.38;;
23608;SDS011;11982;50.810;4.442;2022-07-29T10:16:59;4.97;;;1.88;;
23608;SDS011;11982;50.810;4.442;2022-07-29T10:19:29;6.90;;;2.55;;
23608;SDS011;11982;50.810;4.442;2022-07-29T10:21:57;8.63;;;2.70;;
23608;SDS011;11982;50.810;4.442;2022-07-29T10:24:27;9.00;;;2.75;;
23608;SDS011;11982;50.810;4.442;2022-07-29T10:26:55;9.05;;;2.17;;
23608;SDS011;11982;50.810;4.442;2022-07-29T10:29:21;5.70;;;2.60;;
23608;SDS011;11982;50.810;4.442;2022-07-29T10:34:22;10.10;;;2.25;;
23608;SDS011;11982;50.810;4.442;2022-07-29T10:37:12;6.78;;;2.15;;
23608;SDS011;11982;50.810;4.442;2022-07-29T10:42:46;6.75;;;2.30;;
23608;SDS011;11982;50.810;4.442;2022-07-29T10:45:12;9.60;;;2.50;;
23608;SDS011;11982;50.810;4.442;2022-07-29T10:47:42;6.53;;;2.35;;
23608;SDS011;11982;50.810;4.442;2022-07-29T10:50:08;4.10;;;2.03;;
23608;SDS011;11982;50.810;4.442;2022-07-29T10:53:07;7.80;;;2.35;;
23608;SDS011;11982;50.810;4.442;2022-07-29T10:55:39;6.80;;;2.65;;
23608;SDS011;11982;50.810;4.442;2022-07-29T11:00:46;10.75;;;3.53;;
23608;SDS011;11982;50.810;4.442;2022-07-29T11:06:07;8.60;;;2.80;;
23608;SDS011;11982;50.810;4.442;2022-07-29T11:08:33;4.53;;;2.75;;
23608;SDS011;11982;50.810;4.442;2022-07-29T11:13:52;6.75;;;2.33;;
23608;SDS011;11982;50.810;4.442;2022-07-29T11:16:20;6.40;;;2.70;;
23608;SDS011;11982;50.810;4.442;2022-07-29T11:21:38;7.95;;;2.45;;
23608;SDS011;11982;50.810;4.442;2022-07-29T11:24:19;6.72;;;2.13;;
23608;SDS011;11982;50.810;4.442;2022-07-29T11:29:48;8.43;;;2.95;;
23608;SDS011;11982;50.810;4.442;2022-07-29T11:34:44;8.27;;;2.63;;
23608;SDS011;11982;50.810;4.442;2022-07-29T11:39:38;16.48;;;3.33;;
23608;SDS011;11982;50.810;4.442;2022-07-29T11:44:55;8.77;;;2.58;;
23608;SDS011;11982;50.810;4.442;2022-07-29T11:47:25;6.45;;;2.65;;
23608;SDS011;11982;50.810;4.442;2022-07-29T11:49:52;8.73;;;2.78;;
23608;SDS011;11982;50.810;4.442;2022-07-29T11:52:19;9.70;;;2.63;;
23608;SDS011;11982;50.810;4.442;2022-07-29T11:54:48;5.60;;;2.58;;
23608;SDS011;11982;50.810;4.442;2022-07-29T11:57:19;7.22;;;2.97;;
23608;SDS011;11982;50.810;4.442;2022-07-29T11:59:46;10.43;;;2.83;;
23608;SDS011;11982;50.810;4.442;2022-07-29T12:02:13;5.80;;;2.28;;
23608;SDS011;11982;50.810;4.442;2022-07-29T12:04:50;10.15;;;2.65;;
23608;SDS011;11982;50.810;4.442;2022-07-29T12:07:16;6.55;;;2.50;;
23608;SDS011;11982;50.810;4.442;2022-07-29T12:09:52;8.18;;;2.53;;
23608;SDS011;11982;50.810;4.442;2022-07-29T12:12:18;6.85;;;2.90;;
23608;SDS011;11982;50.810;4.442;2022-07-29T12:14:44;20.05;;;3.85;;
23608;SDS011;11982;50.810;4.442;2022-07-29T12:19:53;7.57;;;3.38;;
23608;SDS011;11982;50.810;4.442;2022-07-29T12:22:27;8.90;;;3.72;;
23608;SDS011;11982;50.810;4.442;2022-07-29T12:25:01;8.27;;;3.30;;
23608;SDS011;11982;50.810;4.442;2022-07-29T12:27:31;7.30;;;3.72;;
23608;SDS011;11982;50.810;4.442;2022-07-29T12:32:34;9.18;;;4.15;;
23608;SDS011;11982;50.810;4.442;2022-07-29T12:35:08;10.20;;;4.80;;
23608;SDS011;11982;50.810;4.442;2022-07-29T12:40:03;16.42;;;5.38;;
23608;SDS011;11982;50.810;4.442;2022-07-29T12:42:30;8.90;;;4.70;;
23608;SDS011;11982;50.810;4.442;2022-07-29T12:44:56;11.50;;;5.20;;
23608;SDS011;11982;50.810;4.442;2022-07-29T12:47:21;9.32;;;3.85;;
23608;SDS011;11982;50.810;4.442;2022-07-29T12:49:47;9.45;;;4.00;;
23608;SDS011;11982;50.810;4.442;2022-07-29T12:52:27;6.82;;;4.15;;
23608;SDS011;11982;50.810;4.442;2022-07-29T12:54:58;10.57;;;3.92;;
23608;SDS011;11982;50.810;4.442;2022-07-29T12:57:24;8.30;;;3.58;;
23608;SDS011;11982;50.810;4.442;2022-07-29T13:00:04;8.05;;;4.78;;
23608;SDS011;11982;50.810;4.442;2022-07-29T13:02:35;11.70;;;5.28;;
23608;SDS011;11982;50.810;4.442;2022-07-29T13:05:02;7.25;;;4.28;;
23608;SDS011;11982;50.810;4.442;2022-07-29T13:07:30;8.85;;;3.50;;
23608;SDS011;11982;50.810;4.442;2022-07-29T13:10:18;8.25;;;3.25;;
23608;SDS011;11982;50.810;4.442;2022-07-29T13:15:44;9.02;;;3.75;;
23608;SDS011;11982;50.810;4.442;2022-07-29T13:18:26;8.55;;;2.97;;
23608;SDS011;11982;50.810;4.442;2022-07-29T13:20:52;7.38;;;3.17;;
23608;SDS011;11982;50.810;4.442;2022-07-29T13:23:17;10.68;;;2.90;;
23608;SDS011;11982;50.810;4.442;2022-07-29T13:25:43;7.03;;;3.40;;
23608;SDS011;11982;50.810;4.442;2022-07-29T13:28:08;6.72;;;3.67;;
23608;SDS011;11982;50.810;4.442;2022-07-29T13:30:34;9.27;;;3.13;;
23608;SDS011;11982;50.810;4.442;2022-07-29T13:33:00;5.78;;;2.78;;
23608;SDS011;11982;50.810;4.442;2022-07-29T13:35:25;10.18;;;3.33;;
23608;SDS011;11982;50.810;4.442;2022-07-29T13:37:54;7.53;;;2.50;;
23608;SDS011;11982;50.810;4.442;2022-07-29T13:40:20;6.25;;;2.70;;
23608;SDS011;11982;50.810;4.442;2022-07-29T13:42:46;11.40;;;2.90;;
23608;SDS011;11982;50.810;4.442;2022-07-29T13:45:12;6.03;;;2.83;;
23608;SDS011;11982;50.810;4.442;2022-07-29T13:47:37;7.15;;;3.67;;
23608;SDS011;11982;50.810;4.442;2022-07-29T13:50:04;9.35;;;3.13;;
23608;SDS011;11982;50.810;4.442;2022-07-29T13:52:31;9.10;;;2.70;;
23608;SDS011;11982;50.810;4.442;2022-07-29T13:54:56;6.03;;;2.40;;
23608;SDS011;11982;50.810;4.442;2022-07-29T13:57:22;4.68;;;2.50;;
23608;SDS011;11982;50.810;4.442;2022-07-29T13:59:48;4.45;;;2.28;;
23608;SDS011;11982;50.810;4.442;2022-07-29T14:02:13;5.57;;;2.78;;
23608;SDS011;11982;50.810;4.442;2022-07-29T14:04:39;5.55;;;2.38;;
23608;SDS011;11982;50.810;4.442;2022-07-29T14:07:05;4.80;;;2.75;;
23608;SDS011;11982;50.810;4.442;2022-07-29T14:09:31;8.20;;;2.42;;
23608;SDS011;11982;50.810;4.442;2022-07-29T14:11:57;7.88;;;2.58;;
23608;SDS011;11982;50.810;4.442;2022-07-29T14:14:22;7.65;;;2.70;;
23608;SDS011;11982;50.810;4.442;2022-07-29T14:16:48;5.47;;;2.40;;
23608;SDS011;11982;50.810;4.442;2022-07-29T14:19:14;7.05;;;2.47;;
23608;SDS011;11982;50.810;4.442;2022-07-29T14:21:39;7.90;;;2.83;;
23608;SDS011;11982;50.810;4.442;2022-07-29T14:24:05;7.78;;;2.65;;
23608;SDS011;11982;50.810;4.442;2022-07-29T14:26:31;4.13;;;2.20;;
23608;SDS011;11982;50.810;4.442;2022-07-29T14:28:57;7.80;;;2.42;;
23608;SDS011;11982;50.810;4.442;2022-07-29T14:31:22;3.55;;;1.85;;
23608;SDS011;11982;50.810;4.442;2022-07-29T14:33:48;7.55;;;2.65;;
23608;SDS011;11982;50.810;4.442;2022-07-29T14:36:13;7.15;;;2.33;;
23608;SDS011;11982;50.810;4.442;2022-07-29T14:38:39;10.13;;;2.33;;
23608;SDS011;11982;50.810;4.442;2022-07-29T14:41:05;6.65;;;2.00;;
23608;SDS011;11982;50.810;4.442;2022-07-29T14:43:32;4.63;;;2.00;;
23608;SDS011;11982;50.810;4.442;2022-07-29T14:46:00;4.43;;;1.98;;
23608;SDS011;11982;50.810;4.442;2022-07-29T14:48:26;4.80;;;1.88;;
23608;SDS011;11982;50.810;4.442;2022-07-29T14:50:52;6.50;;;2.08;;
23608;SDS011;11982;50.810;4.442;2022-07-29T14:53:18;4.43;;;2.17;;
23608;SDS011;11982;50.810;4.442;2022-07-29T14:55:43;5.97;;;2.03;;
23608;SDS011;11982;50.810;4.442;2022-07-29T14:58:09;7.88;;;2.20;;
23608;SDS011;11982;50.810;4.442;2022-07-29T15:00:35;3.67;;;1.90;;
23608;SDS011;11982;50.810;4.442;2022-07-29T15:03:01;6.88;;;2.33;;
23608;SDS011;11982;50.810;4.442;2022-07-29T15:05:28;5.97;;;2.08;;
23608;SDS011;11982;50.810;4.442;2022-07-29T15:07:57;4.43;;;1.88;;
23608;SDS011;11982;50.810;4.442;2022-07-29T15:10:23;3.80;;;2.15;;
23608;SDS011;11982;50.810;4.442;2022-07-29T15:12:51;3.42;;;2.00;;
23608;SDS011;11982;50.810;4.442;2022-07-29T15:15:16;7.60;;;1.77;;
23608;SDS011;11982;50.810;4.442;2022-07-29T15:17:42;7.40;;;1.77;;
23608;SDS011;11982;50.810;4.442;2022-07-29T15:20:07;4.18;;;2.22;;
23608;SDS011;11982;50.810;4.442;2022-07-29T15:22:33;5.85;;;2.10;;
23608;SDS011;11982;50.810;4.442;2022-07-29T15:24:59;5.18;;;2.15;;
23608;SDS011;11982;50.810;4.442;2022-07-29T15:27:25;6.28;;;2.25;;
23608;SDS011;11982;50.810;4.442;2022-07-29T15:29:50;4.40;;;2.05;;
23608;SDS011;11982;50.810;4.442;2022-07-29T15:32:16;9.60;;;2.70;;
23608;SDS011;11982;50.810;4.442;2022-07-29T15:34:42;4.35;;;2.30;;
23608;SDS011;11982;50.810;4.442;2022-07-29T15:37:07;9.98;;;2.90;;
23608;SDS011;11982;50.810;4.442;2022-07-29T15:39:33;6.47;;;2.00;;
23608;SDS011;11982;50.810;4.442;2022-07-29T15:41:58;5.45;;;2.50;;
23608;SDS011;11982;50.810;4.442;2022-07-29T15:44:24;4.68;;;2.40;;
23608;SDS011;11982;50.810;4.442;2022-07-29T15:46:50;5.45;;;2.38;;
23608;SDS011;11982;50.810;4.442;2022-07-29T15:49:28;6.35;;;2.60;;
23608;SDS011;11982;50.810;4.442;2022-07-29T15:52:01;4.45;;;2.70;;